Port Vincent, Louisiana
Current Conditions -  °F | °C
As of 11:05 PM on Sunday 21 Dec 2014 (Local Time) from KBTR Reporting Station
Haze Haze  
Wind Chill: 51°   Ceiling: 500
Heat Index: 51°   Visibility: 5mi
Dew Point: 49°   Wind: 8mph
Humidity: 92%   Direction: 90°E
Pressure: 29.96"   Gusts: NA
Location:  30.421°N, 90.9008°W
Report Text: KBTR 220505Z 09007KT 5SM BR BKN005 BKN030 11/09 A2996 RMK AO2 T01060094
Loading
Personal Weather Stations






























Interactive Weather Map New forecast layout! Learn more

10-Day Weather Forecast

Advertisements
Track Severe Weather on mobile